Time;durP1;ratioP1;P1;durP2;ratioP2;P2;SDS_P1;SDS_P2;PMS_P1;PMS_P2;Temp;Humidity;BMP_temperature;BMP_pressure;BME280_temperature;BME280_humidity;BME280_pressure;Samples;Min_cycle;Max_cycle;Signal;HPM_P1;HPM_P2
2022/04/01 00:02:23;;;;;;;0.60;0.60;;;-3.70;99.90;;;;;;4996685;28;20610;-81
2022/04/01 00:04:49;;;;;;;0.75;0.75;;;-3.70;99.90;;;;;;5013107;28;20203;-81
2022/04/01 00:07:15;;;;;;;1.10;1.10;;;-3.80;99.90;;;;;;5013343;28;20210;-81
2022/04/01 00:09:41;;;;;;;0.80;0.80;;;-3.70;99.90;;;;;;5014606;28;20669;-81
2022/04/01 00:12:08;;;;;;;0.90;0.90;;;-3.90;99.90;;;;;;4997055;28;20201;-81
2022/04/01 00:14:34;;;;;;;0.70;0.70;;;-3.90;99.90;;;;;;4996449;28;20674;-81
2022/04/01 00:17:00;;;;;;;0.80;0.80;;;-3.90;99.90;;;;;;4996142;28;20201;-81
2022/04/01 00:19:27;;;;;;;0.80;0.80;;;-4.00;99.90;;;;;;4995971;28;20289;-82
2022/04/01 00:21:53;;;;;;;0.80;0.80;;;-4.10;99.90;;;;;;4996613;28;20281;-82
2022/04/01 00:24:18;;;;;;;0.90;0.90;;;-4.10;99.90;;;;;;5014010;28;20701;-82
2022/04/01 00:26:45;;;;;;;0.90;0.90;;;-4.00;99.90;;;;;;4996755;28;20201;-82
2022/04/01 00:29:15;;;;;;;0.80;0.80;;;-4.00;99.90;;;;;;4996962;28;20311;-81
2022/04/01 00:31:49;;;;;;;0.80;0.80;;;-4.10;99.90;;;;;;4981948;28;20253;-82
2022/04/01 00:34:15;;;;;;;0.80;0.80;;;-4.10;99.90;;;;;;4996394;28;20236;-81
2022/04/01 00:36:46;;;;;;;0.88;0.88;;;-4.00;99.90;;;;;;4995515;28;20199;-81
2022/04/01 00:39:13;;;;;;;0.90;0.90;;;-4.10;99.90;;;;;;4975029;28;20203;-81
2022/04/01 00:41:40;;;;;;;0.77;0.77;;;-4.10;99.90;;;;;;4976348;28;20674;-81
2022/04/01 00:44:18;;;;;;;0.80;0.80;;;-4.20;99.90;;;;;;4993964;28;20266;-81
2022/04/01 00:46:47;;;;;;;0.80;0.80;;;-4.20;99.90;;;;;;4976701;28;20199;-80
2022/04/01 00:49:13;;;;;;;0.90;0.90;;;-4.30;99.90;;;;;;4976805;28;20207;-81
2022/04/01 00:51:42;;;;;;;0.90;0.90;;;-4.40;99.90;;;;;;4976728;28;20199;-80
2022/04/01 00:54:09;;;;;;;0.90;0.90;;;-4.40;99.90;;;;;;4976958;28;20200;-80
2022/04/01 00:56:36;;;;;;;0.90;0.90;;;-4.60;99.90;;;;;;4976812;28;20196;-80
2022/04/01 00:59:03;;;;;;;0.90;0.90;;;-4.70;99.90;;;;;;4976656;28;20270;-81
2022/04/01 01:01:34;;;;;;;0.82;0.82;;;-4.70;99.90;;;;;;4975509;28;20219;-81
2022/04/01 01:04:04;;;;;;;0.80;0.80;;;-4.80;99.90;;;;;;4993122;28;20187;-81
2022/04/01 01:06:31;;;;;;;0.90;0.90;;;-5.00;99.90;;;;;;4975547;28;20293;-81
2022/04/01 01:08:58;;;;;;;0.80;0.80;;;-5.00;99.90;;;;;;4997148;28;20214;-81
2022/04/01 01:11:26;;;;;;;0.80;0.80;;;-5.10;99.90;;;;;;4979583;28;20246;-81
2022/04/01 01:13:53;;;;;;;0.88;0.88;;;-5.00;99.90;;;;;;4994718;28;20195;-81
2022/04/01 01:16:19;;;;;;;0.90;0.90;;;-5.10;99.90;;;;;;4998807;28;20195;-81
2022/04/01 01:18:57;;;;;;;0.80;0.80;;;-5.00;99.90;;;;;;4998943;28;20238;-81
2022/04/01 01:21:23;;;;;;;0.80;0.80;;;-5.10;99.90;;;;;;5016620;28;20291;-81
2022/04/01 01:23:49;;;;;;;0.90;0.90;;;-5.10;99.90;;;;;;5016605;28;20850;-81
2022/04/01 01:26:15;;;;;;;0.90;0.90;;;-5.20;99.90;;;;;;4999293;28;20329;-81
2022/04/01 01:28:41;;;;;;;0.80;0.80;;;-5.20;99.90;;;;;;4998602;28;20720;-81
2022/04/01 01:31:07;;;;;;;0.83;0.83;;;-5.20;99.90;;;;;;5001081;28;20596;-81
2022/04/01 01:33:32;;;;;;;0.80;0.80;;;-5.10;99.90;;;;;;4978937;28;20196;-81
2022/04/01 01:35:58;;;;;;;0.93;0.93;;;-5.10;99.90;;;;;;4996131;28;20338;-81
2022/04/01 01:38:24;;;;;;;0.90;0.90;;;-5.10;99.90;;;;;;4995297;28;20376;-81
2022/04/01 01:40:50;;;;;;;0.90;0.90;;;-5.10;99.90;;;;;;4979235;28;20204;-81
2022/04/01 01:43:15;;;;;;;0.90;0.90;;;-5.10;99.90;;;;;;4979503;28;20200;-81
2022/04/01 01:45:41;;;;;;;0.80;0.80;;;-5.00;99.90;;;;;;4978955;28;20784;-81
2022/04/01 01:48:07;;;;;;;0.90;0.90;;;-5.00;99.90;;;;;;4996164;28;20208;-81
2022/04/01 01:56:02;;;;;;;0.90;0.90;;;-4.80;99.90;;;;;;4996841;28;20198;-81
2022/04/01 01:58:27;;;;;;;0.90;0.90;;;-4.80;99.90;;;;;;4978813;28;20289;-81
2022/04/01 02:00:53;;;;;;;0.90;0.90;;;-4.70;99.90;;;;;;4980322;28;20224;-81
2022/04/01 02:03:19;;;;;;;0.90;0.90;;;-4.70;99.90;;;;;;4978575;28;20220;-81
2022/04/01 02:05:44;;;;;;;0.80;0.80;;;-4.80;99.90;;;;;;4978617;28;20243;-81
2022/04/01 02:08:10;;;;;;;0.88;0.88;;;-4.90;99.90;;;;;;4996379;28;20203;-81
2022/04/01 02:10:36;;;;;;;0.85;0.85;;;-4.90;99.90;;;;;;4977914;28;20202;-81
2022/04/01 02:13:02;;;;;;;0.80;0.80;;;-4.90;99.90;;;;;;4979219;28;20203;-81
2022/04/01 02:15:28;;;;;;;1.42;1.33;;;-4.80;99.90;;;;;;4977522;28;20192;-81
2022/04/01 02:17:53;;;;;;;0.90;0.90;;;-4.80;99.90;;;;;;4977569;28;20201;-82
2022/04/01 02:20:19;;;;;;;0.90;0.90;;;-4.80;99.90;;;;;;4993356;28;20226;-81
2022/04/01 02:22:45;;;;;;;0.90;0.90;;;-4.90;99.90;;;;;;4977703;28;20224;-81
2022/04/01 02:25:11;;;;;;;0.90;0.90;;;-4.90;99.90;;;;;;4994974;28;20198;-81
2022/04/01 02:27:38;;;;;;;0.93;0.93;;;-5.00;99.90;;;;;;4977287;28;20298;-82
2022/04/01 02:30:10;;;;;;;0.80;0.80;;;-5.10;99.90;;;;;;4998853;28;20191;-81
2022/04/01 02:32:44;;;;;;;0.90;0.90;;;-5.20;99.90;;;;;;4997982;28;20306;-82
2022/04/01 02:35:10;;;;;;;0.90;0.90;;;-5.30;99.90;;;;;;4997571;28;20205;-82
2022/04/01 02:37:37;;;;;;;0.90;0.90;;;-5.20;99.90;;;;;;4997675;28;20576;-82
2022/04/01 02:40:04;;;;;;;0.80;0.80;;;-5.20;99.90;;;;;;4998003;28;20202;-82
2022/04/01 02:42:30;;;;;;;0.80;0.80;;;-5.20;99.90;;;;;;4997494;28;20838;-82
2022/04/01 02:44:56;;;;;;;0.80;0.80;;;-5.20;99.90;;;;;;5009730;28;20214;-82
2022/04/01 02:47:22;;;;;;;0.90;0.90;;;-5.30;99.90;;;;;;4994899;28;20195;-81
2022/04/01 02:49:47;;;;;;;0.80;0.80;;;-5.20;99.90;;;;;;4993795;28;20205;-82
2022/04/01 02:52:13;;;;;;;0.90;0.90;;;-5.20;99.90;;;;;;4994560;28;20562;-82
2022/04/01 02:54:39;;;;;;;0.88;0.88;;;-5.30;99.90;;;;;;4993714;28;20200;-82
2022/04/01 02:57:05;;;;;;;0.80;0.80;;;-5.30;99.90;;;;;;4994924;28;20210;-82
2022/04/01 02:59:31;;;;;;;0.90;0.90;;;-5.40;99.90;;;;;;4994717;28;20225;-82
2022/04/01 03:01:57;;;;;;;0.80;0.80;;;-5.40;99.90;;;;;;4982200;28;20208;-82
2022/04/01 03:04:22;;;;;;;0.88;0.88;;;-5.30;99.90;;;;;;4978197;28;20200;-82
2022/04/01 03:06:49;;;;;;;0.90;0.90;;;-5.20;99.90;;;;;;4978699;28;20287;-82
2022/04/01 03:09:15;;;;;;;0.90;0.90;;;-5.30;99.90;;;;;;4978526;28;20214;-82
2022/04/01 03:11:42;;;;;;;0.90;0.90;;;-5.20;99.90;;;;;;4995901;28;20187;-82
2022/04/01 03:14:09;;;;;;;0.90;0.90;;;-5.30;99.90;;;;;;4996367;28;20311;-81
2022/04/01 03:16:37;;;;;;;0.90;0.90;;;-5.30;99.90;;;;;;4978836;28;20207;-81
2022/04/01 03:19:08;;;;;;;0.90;0.90;;;-5.20;99.90;;;;;;4978412;28;20616;-81
2022/04/01 03:21:35;;;;;;;0.90;0.90;;;-5.20;99.90;;;;;;4995847;28;20206;-81
2022/04/01 03:24:02;;;;;;;0.80;0.80;;;-5.30;99.90;;;;;;4977937;28;20207;-81
2022/04/01 03:26:28;;;;;;;0.80;0.80;;;-5.30;99.90;;;;;;4994580;28;20188;-81
2022/04/01 03:28:54;;;;;;;0.90;0.90;;;-5.30;99.90;;;;;;4993020;28;20207;-81
2022/04/01 03:31:20;;;;;;;0.83;0.83;;;-5.30;99.90;;;;;;4975004;28;20200;-81
2022/04/01 03:33:46;;;;;;;0.87;0.87;;;-5.30;99.90;;;;;;4958078;28;20761;-81
2022/04/01 03:36:13;;;;;;;0.90;0.90;;;-5.30;99.90;;;;;;4976262;28;20220;-81
2022/04/01 03:38:40;;;;;;;0.90;0.90;;;-5.40;99.90;;;;;;4958375;28;20622;-81
2022/04/01 03:41:07;;;;;;;0.90;0.90;;;-5.50;99.90;;;;;;4980059;28;20254;-80
2022/04/01 03:43:36;;;;;;;0.90;0.90;;;-5.40;99.90;;;;;;4993679;28;20212;-81
2022/04/01 03:46:08;;;;;;;0.90;0.90;;;-5.30;99.90;;;;;;4993481;28;20195;-81
2022/04/01 03:48:59;;;;;;;0.90;0.90;;;-5.40;99.90;;;;;;4993148;28;20745;-81
2022/04/01 03:51:25;;;;;;;0.90;0.90;;;-5.40;99.90;;;;;;4994401;28;20246;-81
2022/04/01 03:54:18;;;;;;;0.90;0.90;;;-5.60;99.90;;;;;;4993222;28;20191;-81
2022/04/01 03:56:49;;;;;;;0.90;0.90;;;-5.60;99.90;;;;;;4990369;28;20231;-81
2022/04/01 03:59:17;;;;;;;1.00;1.00;;;-5.50;99.90;;;;;;4993455;28;20196;-81
2022/04/01 04:01:43;;;;;;;0.90;0.90;;;-5.50;99.90;;;;;;4993023;28;20684;-81
2022/04/01 04:04:09;;;;;;;0.80;0.80;;;-5.50;99.90;;;;;;4975814;28;20563;-81
2022/04/01 04:06:38;;;;;;;0.90;0.90;;;-5.50;99.90;;;;;;4975485;28;20195;-81
2022/04/01 04:09:04;;;;;;;0.90;0.90;;;-5.60;99.90;;;;;;4993329;28;20638;-81
2022/04/01 04:11:32;;;;;;;0.83;0.83;;;-5.50;99.90;;;;;;4975461;28;20666;-81
2022/04/01 04:13:59;;;;;;;0.90;0.90;;;-5.40;99.90;;;;;;4976439;28;20198;-81
2022/04/01 04:16:31;;;;;;;0.90;0.90;;;-5.40;99.90;;;;;;4976179;28;20671;-81
2022/04/01 04:19:16;;;;;;;0.90;0.90;;;-5.50;99.90;;;;;;4975947;28;20238;-80
2022/04/01 04:21:54;;;;;;;0.90;0.90;;;-5.40;99.90;;;;;;4976142;28;20330;-81
2022/04/01 04:24:28;;;;;;;0.90;0.90;;;-5.60;99.90;;;;;;4992616;28;20191;-81
2022/04/01 04:27:07;;;;;;;0.80;0.80;;;-5.60;99.90;;;;;;4993478;28;20282;-81
2022/04/01 04:29:40;;;;;;;0.90;0.90;;;-5.70;99.90;;;;;;4973364;28;20199;-82
2022/04/01 04:32:10;;;;;;;0.90;0.90;;;-5.60;99.90;;;;;;4956292;28;20607;-81
2022/04/01 04:34:38;;;;;;;0.83;0.83;;;-5.60;99.90;;;;;;4973141;28;20193;-81
2022/04/01 04:37:11;;;;;;;0.83;0.83;;;-5.60;99.90;;;;;;4958892;28;20199;-81
2022/04/01 04:39:40;;;;;;;0.90;0.90;;;-5.50;99.90;;;;;;4993460;28;20202;-82
2022/04/01 04:42:09;;;;;;;0.90;0.90;;;-5.50;99.90;;;;;;4991659;28;20215;-81
2022/04/01 04:44:36;;;;;;;0.90;0.90;;;-5.50;99.90;;;;;;4992241;28;20569;-81
2022/04/01 04:47:05;;;;;;;0.90;0.90;;;-5.50;99.90;;;;;;4992293;28;20192;-81
2022/04/01 04:49:32;;;;;;;0.83;0.83;;;-5.50;99.90;;;;;;4992093;28;20203;-81
2022/04/01 04:51:59;;;;;;;0.90;0.90;;;-5.40;99.90;;;;;;4993048;28;20194;-82
2022/04/01 04:54:25;;;;;;;0.90;0.90;;;-5.40;99.90;;;;;;4991946;28;20195;-82
2022/04/01 04:56:53;;;;;;;0.80;0.80;;;-5.40;99.90;;;;;;4992175;28;20286;-82
2022/04/01 04:59:20;;;;;;;0.80;0.80;;;-5.40;99.90;;;;;;4976288;28;20203;-81
2022/04/01 05:01:57;;;;;;;0.90;0.90;;;-5.40;99.90;;;;;;4975701;28;20655;-81
2022/04/01 05:04:42;;;;;;;0.90;0.90;;;-5.50;99.90;;;;;;4975507;28;20206;-81
2022/04/01 05:07:17;;;;;;;0.90;0.90;;;-5.50;99.90;;;;;;4976074;28;20626;-81
2022/04/01 05:10:07;;;;;;;0.90;0.90;;;-5.50;99.90;;;;;;4993665;28;20253;-82
2022/04/01 05:12:37;;;;;;;1.00;1.00;;;-5.50;99.90;;;;;;4975535;28;20206;-82
2022/04/01 05:15:04;;;;;;;0.97;0.97;;;-5.40;99.90;;;;;;4975935;28;20195;-81
2022/04/01 05:17:36;;;;;;;0.80;0.80;;;-5.40;99.90;;;;;;4993058;28;20285;-81
2022/04/01 05:20:05;;;;;;;1.00;1.00;;;-5.30;99.90;;;;;;4976312;28;20769;-81
2022/04/01 05:22:50;;;;;;;0.90;0.90;;;-5.20;99.90;;;;;;4975407;28;20204;-81
2022/04/01 05:25:19;;;;;;;1.10;1.10;;;-5.20;99.90;;;;;;4993409;28;20207;-81
2022/04/01 05:27:53;;;;;;;0.93;0.93;;;-5.10;99.90;;;;;;4976011;28;20568;-81
2022/04/01 05:30:21;;;;;;;1.00;1.00;;;-5.00;99.90;;;;;;4984266;28;20223;-81
2022/04/01 05:32:57;;;;;;;0.90;0.90;;;-5.00;99.90;;;;;;4957049;28;20214;-81
2022/04/01 05:35:29;;;;;;;1.00;1.00;;;-4.90;99.90;;;;;;4992435;28;20199;-81
2022/04/01 05:37:57;;;;;;;0.90;0.90;;;-4.90;99.90;;;;;;4991168;28;20258;-81
2022/04/01 05:40:24;;;;;;;1.00;1.00;;;-4.80;99.90;;;;;;4990750;28;20203;-81
2022/04/01 05:42:52;;;;;;;0.73;0.73;;;-4.80;99.90;;;;;;4992259;28;20595;-81
2022/04/01 05:45:21;;;;;;;0.90;0.90;;;-4.80;99.90;;;;;;4992100;28;20196;-81
2022/04/01 05:47:47;;;;;;;0.90;0.90;;;-4.70;99.90;;;;;;4990925;28;20686;-80
2022/04/01 05:50:18;;;;;;;0.90;0.90;;;-4.80;99.90;;;;;;4992089;28;20192;-81
2022/04/01 05:52:49;;;;;;;0.90;0.90;;;-4.70;99.90;;;;;;4991455;28;20712;-82
2022/04/01 05:55:17;;;;;;;1.02;1.02;;;-4.70;99.90;;;;;;4996567;28;20568;-82
2022/04/01 05:57:43;;;;;;;0.90;0.90;;;-4.70;99.90;;;;;;4996893;28;20191;-81
2022/04/01 06:00:12;;;;;;;0.90;0.90;;;-4.70;99.90;;;;;;4979505;28;20331;-82
2022/04/01 06:02:56;;;;;;;0.90;0.90;;;-4.60;99.90;;;;;;4996467;28;20196;-82
2022/04/01 06:05:29;;;;;;;0.83;0.83;;;-4.60;99.90;;;;;;4996525;28;20671;-82
2022/04/01 06:07:55;;;;;;;0.80;0.80;;;-4.60;99.90;;;;;;4996672;28;20211;-81
2022/04/01 06:10:34;;;;;;;0.80;0.80;;;-4.50;99.90;;;;;;4996524;28;20194;-82
2022/04/01 06:13:13;;;;;;;0.80;0.80;;;-4.50;99.90;;;;;;4979325;28;20195;-80
2022/04/01 06:16:04;;;;;;;0.90;0.90;;;-4.40;99.90;;;;;;4979681;28;20203;-82
2022/04/01 06:18:48;;;;;;;0.83;0.83;;;-4.20;99.90;;;;;;4972167;28;20606;-82
2022/04/01 06:21:20;;;;;;;0.90;0.90;;;-4.00;99.90;;;;;;4959128;28;20742;-82
2022/04/01 06:24:32;;;;;;;0.90;0.90;;;-3.90;99.90;;;;;;4971504;28;20570;-83
2022/04/01 06:27:03;;;;;;;0.90;0.90;;;-3.70;99.90;;;;;;4881469;29;20199;-82
2022/04/01 06:29:37;;;;;;;0.90;0.90;;;-3.70;99.90;;;;;;4896369;29;20749;-82
2022/04/01 06:32:26;;;;;;;0.70;0.70;;;-3.50;99.90;;;;;;4896865;29;20198;-82
2022/04/01 06:35:19;;;;;;;0.82;0.82;;;-3.40;99.90;;;;;;4880926;29;20203;-82
2022/04/01 06:38:01;;;;;;;0.90;0.90;;;-3.30;99.90;;;;;;4881003;29;20214;-82
2022/04/01 06:40:43;;;;;;;1.15;1.10;;;-3.20;99.90;;;;;;4897252;29;20202;-82
2022/04/01 06:43:08;;;;;;;0.70;0.70;;;-3.10;99.90;;;;;;4881892;29;20705;-82
2022/04/01 06:45:34;;;;;;;0.95;0.95;;;-3.00;99.90;;;;;;4897573;29;20204;-82
2022/04/01 06:48:04;;;;;;;0.80;0.80;;;-2.80;99.90;;;;;;4882365;29;20255;-83
2022/04/01 06:50:30;;;;;;;0.93;0.93;;;-2.70;99.90;;;;;;4897312;29;20606;-82
2022/04/01 06:52:56;;;;;;;5.70;3.35;;;-2.60;99.90;;;;;;4881825;29;20203;-82
2022/04/01 06:55:22;;;;;;;0.90;0.90;;;-2.50;99.90;;;;;;4881930;29;20218;-82
2022/04/01 06:57:47;;;;;;;0.80;0.80;;;-2.50;99.90;;;;;;4881871;29;20518;-82
2022/04/01 07:00:13;;;;;;;0.80;0.80;;;-2.40;99.90;;;;;;4897842;29;20292;-83
2022/04/01 07:02:43;;;;;;;2.80;1.85;;;-2.20;99.90;;;;;;4957451;28;20197;-83
2022/04/01 07:05:10;;;;;;;0.63;0.63;;;-2.10;99.90;;;;;;4974753;28;20198;-83
2022/04/01 07:07:36;;;;;;;0.70;0.70;;;-2.00;99.90;;;;;;4974762;28;20192;-82
2022/04/01 07:10:07;;;;;;;0.80;0.80;;;-1.90;99.90;;;;;;4957836;28;20663;-82
2022/04/01 07:12:32;;;;;;;0.90;0.90;;;-1.80;99.90;;;;;;4975055;28;20736;-82
2022/04/01 07:14:59;;;;;;;0.80;0.80;;;-1.60;99.90;;;;;;4957968;28;20260;-82
2022/04/01 07:17:25;;;;;;;0.70;0.70;;;-1.60;99.90;;;;;;4956857;28;20332;-82
2022/04/01 07:19:51;;;;;;;0.70;0.70;;;-1.40;99.90;;;;;;4974843;28;20327;-82
2022/04/01 07:22:35;;;;;;;2.55;1.95;;;-1.30;99.90;;;;;;4977215;28;20235;-83
2022/04/01 07:28:48;;;;;;;1.52;1.42;;;-0.80;99.90;;;;;;4994566;28;20209;-82
2022/04/01 07:33:58;;;;;;;0.70;0.70;;;-0.50;99.90;;;;;;4975340;28;20203;-82
2022/04/01 07:36:23;;;;;;;0.50;0.50;;;-0.50;99.90;;;;;;4974034;28;20578;-82
2022/04/01 07:38:49;;;;;;;0.70;0.70;;;-0.50;99.90;;;;;;4974175;28;20219;-81
2022/04/01 07:41:15;;;;;;;0.73;0.73;;;-0.40;99.90;;;;;;4973874;28;20203;-82
2022/04/01 07:43:41;;;;;;;0.70;0.70;;;-0.40;99.90;;;;;;4973509;28;20227;-82
2022/04/01 07:46:07;;;;;;;0.60;0.60;;;-0.30;99.90;;;;;;4987835;28;20212;-82
2022/04/01 07:48:32;;;;;;;0.63;0.63;;;-0.10;99.90;;;;;;4976731;28;20282;-82
2022/04/01 07:50:58;;;;;;;0.70;0.70;;;0.00;99.90;;;;;;4977055;28;20200;-82
2022/04/01 07:53:24;;;;;;;0.60;0.60;;;0.20;99.90;;;;;;4976787;28;20299;-82
2022/04/01 07:55:50;;;;;;;0.80;0.80;;;0.30;99.90;;;;;;4976823;28;20250;-82
2022/04/01 07:58:19;;;;;;;0.60;0.60;;;0.30;99.90;;;;;;4976458;28;20563;-82
2022/04/01 08:00:45;;;;;;;0.70;0.70;;;0.60;99.90;;;;;;4992786;28;20704;-82
2022/04/01 08:03:50;;;;;;;0.70;0.70;;;0.60;99.90;;;;;;4977755;28;20258;-81
2022/04/01 08:06:16;;;;;;;0.68;0.68;;;0.80;99.90;;;;;;4993229;28;20227;-80
2022/04/01 08:08:42;;;;;;;0.60;0.60;;;0.80;99.90;;;;;;4977709;28;20199;-81
2022/04/01 08:11:07;;;;;;;0.70;0.70;;;0.90;99.90;;;;;;4977116;28;20613;-80
2022/04/01 08:13:33;;;;;;;3.42;1.90;;;1.10;99.90;;;;;;4993905;28;20275;-80
2022/04/01 08:16:00;;;;;;;0.60;0.60;;;1.10;99.90;;;;;;4992476;28;20207;-80
2022/04/01 08:18:26;;;;;;;0.70;0.70;;;1.10;99.90;;;;;;4993224;28;20650;-81
2022/04/01 08:20:55;;;;;;;0.70;0.70;;;1.20;99.90;;;;;;4976429;28;20196;-81
2022/04/01 08:23:21;;;;;;;0.70;0.70;;;1.50;99.90;;;;;;4975279;28;20725;-81
2022/04/01 08:25:47;;;;;;;0.70;0.70;;;1.70;99.90;;;;;;4975261;28;20200;-81
2022/04/01 08:28:13;;;;;;;0.50;0.50;;;1.90;99.90;;;;;;4991338;28;20567;-80
2022/04/01 08:30:40;;;;;;;0.60;0.60;;;2.10;99.90;;;;;;4979710;28;20347;-82
2022/04/01 08:33:06;;;;;;;0.80;0.80;;;2.30;99.90;;;;;;4971983;28;20196;-81
2022/04/01 08:35:33;;;;;;;0.60;0.60;;;2.40;99.90;;;;;;4971709;28;20211;-81
2022/04/01 08:38:03;;;;;;;0.50;0.50;;;2.30;99.90;;;;;;4972205;28;20691;-82
2022/04/01 08:47:28;;;;;;;0.50;0.50;;;2.60;99.90;;;;;;4913836;29;20261;-82
2022/04/01 08:49:54;;;;;;;0.57;0.57;;;3.10;99.90;;;;;;4914084;29;20210;-82
2022/04/01 08:52:20;;;;;;;0.65;0.65;;;3.30;99.90;;;;;;4913815;29;20202;-81
2022/04/01 08:54:46;;;;;;;0.55;0.55;;;3.20;99.90;;;;;;4913100;29;20225;-82
2022/04/01 08:57:18;;;;;;;0.80;0.80;;;3.20;99.90;;;;;;4897126;29;20269;-82
2022/04/01 08:59:44;;;;;;;0.50;0.50;;;3.10;99.90;;;;;;4897283;29;20212;-82
2022/04/01 09:02:10;;;;;;;0.68;0.68;;;3.10;99.90;;;;;;4897003;29;20622;-82
2022/04/01 09:04:37;;;;;;;0.63;0.63;;;3.30;99.90;;;;;;4884452;29;20230;-82
2022/04/01 09:07:14;;;;;;;0.50;0.50;;;3.70;99.90;;;;;;4894078;29;20199;-82
2022/04/01 09:09:41;;;;;;;0.70;0.70;;;4.20;99.90;;;;;;4893840;29;20306;-82
2022/04/01 09:12:09;;;;;;;0.60;0.60;;;4.60;99.90;;;;;;4894154;29;20198;-81
2022/04/01 09:14:36;;;;;;;0.65;0.65;;;4.80;99.90;;;;;;4893697;29;20583;-82
2022/04/01 09:17:03;;;;;;;0.60;0.60;;;4.70;99.90;;;;;;4894080;29;20203;-82
2022/04/01 09:19:33;;;;;;;0.50;0.50;;;4.60;99.90;;;;;;4893434;29;20254;-81
2022/04/01 09:22:21;;;;;;;0.60;0.60;;;4.50;99.90;;;;;;4921801;28;20204;-81
2022/04/01 09:24:57;;;;;;;0.73;0.73;;;4.40;99.90;;;;;;4974580;28;20200;-82
2022/04/01 09:27:47;;;;;;;4.43;1.65;;;4.70;99.90;;;;;;4974266;28;20203;-82
2022/04/01 09:30:18;;;;;;;0.80;0.80;;;4.40;99.90;;;;;;4975031;28;20624;-82
2022/04/01 09:32:47;;;;;;;0.82;0.82;;;4.80;99.90;;;;;;4959735;28;20207;-82
2022/04/01 09:35:14;;;;;;;0.60;0.60;;;5.10;99.90;;;;;;4977027;28;20694;-81
2022/04/01 09:37:58;;;;;;;0.57;0.57;;;5.60;99.90;;;;;;4974958;28;20227;-82
2022/04/01 09:40:25;;;;;;;0.60;0.60;;;5.90;99.90;;;;;;4994473;28;20192;-84
2022/04/01 09:42:53;;;;;;;0.80;0.80;;;6.20;99.90;;;;;;4995269;28;20278;-82
2022/04/01 09:45:24;;;;;;;0.70;0.70;;;6.20;99.90;;;;;;4995280;28;20195;-82
2022/04/01 09:48:07;;;;;;;0.70;0.70;;;5.90;99.90;;;;;;4996442;28;20196;-82
2022/04/01 09:50:36;;;;;;;0.68;0.68;;;5.10;99.90;;;;;;4995338;28;20202;-83
2022/04/01 09:53:21;;;;;;;0.60;0.60;;;4.50;99.90;;;;;;4995731;28;20203;-82
2022/04/01 09:55:50;;;;;;;0.70;0.70;;;4.30;99.90;;;;;;4995256;28;20235;-82
2022/04/01 09:58:18;;;;;;;0.60;0.60;;;3.90;99.90;;;;;;4995183;28;20223;-81
2022/04/01 10:00:45;;;;;;;0.70;0.70;;;3.80;99.90;;;;;;4995955;28;20286;-83
2022/04/01 10:03:12;;;;;;;0.60;0.60;;;3.50;99.90;;;;;;4978416;28;20210;-82
2022/04/01 10:05:39;;;;;;;1.00;1.00;;;3.30;99.90;;;;;;4995978;28;20203;-84
2022/04/01 10:08:07;;;;;;;1.25;1.15;;;3.00;99.90;;;;;;4977946;28;20309;-83
2022/04/01 10:10:34;;;;;;;0.70;0.70;;;2.90;99.90;;;;;;4977956;28;20199;-83
2022/04/01 10:13:19;;;;;;;0.60;0.60;;;2.60;99.90;;;;;;4978694;28;20227;-83
2022/04/01 10:15:45;;;;;;;0.75;0.75;;;2.60;99.90;;;;;;4978550;28;20230;-82
2022/04/01 10:18:12;;;;;;;0.70;0.70;;;2.30;99.90;;;;;;4978275;28;20627;-83
2022/04/01 10:20:38;;;;;;;0.75;0.75;;;2.10;99.90;;;;;;4995545;28;20237;-83
2022/04/01 10:23:06;;;;;;;2.60;1.50;;;2.20;99.90;;;;;;4978216;28;20278;-83
2022/04/01 10:25:57;;;;;;;0.60;0.60;;;2.20;99.90;;;;;;4978593;28;20215;-82
2022/04/01 10:28:23;;;;;;;0.73;0.73;;;2.10;99.90;;;;;;4995867;28;20200;-82
2022/04/01 10:30:57;;;;;;;0.50;0.50;;;2.20;99.90;;;;;;4978626;28;20207;-83
2022/04/01 10:33:28;;;;;;;0.55;0.55;;;2.10;99.90;;;;;;4973866;28;20200;-84
2022/04/01 10:35:55;;;;;;;0.68;0.68;;;2.10;99.90;;;;;;4986756;28;20222;-82
2022/04/01 10:38:26;;;;;;;0.50;0.50;;;2.20;99.90;;;;;;4977068;28;20208;-83
2022/04/01 10:40:54;;;;;;;0.70;0.70;;;2.40;99.90;;;;;;4993734;28;20283;-84
2022/04/01 10:43:28;;;;;;;0.55;0.55;;;2.40;99.90;;;;;;4976961;28;20210;-83
2022/04/01 10:46:12;;;;;;;0.90;0.88;;;2.50;99.90;;;;;;4994625;28;20192;-83
2022/04/01 10:52:04;;;;;;;0.60;0.60;;;3.00;99.90;;;;;;4995985;28;20769;-83
2022/04/01 10:54:29;;;;;;;0.60;0.60;;;4.00;99.90;;;;;;4977915;28;20200;-82
2022/04/01 10:56:57;;;;;;;0.50;0.50;;;4.40;99.90;;;;;;4995124;28;20270;-82
2022/04/01 10:59:25;;;;;;;0.60;0.60;;;4.70;99.90;;;;;;4977699;28;20258;-82
2022/04/01 11:01:57;;;;;;;0.50;0.50;;;5.00;99.90;;;;;;4976521;28;20206;-82
2022/04/01 11:04:26;;;;;;;0.60;0.60;;;5.40;99.90;;;;;;4976517;28;20203;-81
2022/04/01 11:07:06;;;;;;;0.73;0.73;;;5.70;99.90;;;;;;4976724;28;20781;-83
2022/04/01 11:09:49;;;;;;;0.70;0.70;;;6.50;99.90;;;;;;4976813;28;20206;-82
2022/04/01 11:12:21;;;;;;;0.70;0.70;;;7.00;99.90;;;;;;4976546;28;20534;-81
2022/04/01 11:14:56;;;;;;;0.70;0.70;;;7.30;99.90;;;;;;4976464;28;20199;-82
2022/04/01 11:17:47;;;;;;;0.70;0.70;;;8.10;99.90;;;;;;4977242;28;20226;-80
2022/04/01 11:20:22;;;;;;;0.70;0.70;;;8.80;98.50;;;;;;4986708;28;20224;-81
2022/04/01 11:22:54;;;;;;;0.70;0.70;;;8.40;94.40;;;;;;4977404;28;20507;-82
2022/04/01 11:25:23;;;;;;;0.70;0.70;;;9.20;93.40;;;;;;4977040;28;20192;-82
2022/04/01 11:28:02;;;;;;;0.70;0.70;;;9.70;89.50;;;;;;4977641;28;20239;-82
2022/04/01 11:30:36;;;;;;;0.60;0.60;;;9.00;89.60;;;;;;4973383;28;20235;-82
2022/04/01 11:33:19;;;;;;;0.82;0.82;;;8.20;91.60;;;;;;4976166;28;20194;-82
2022/04/01 11:35:49;;;;;;;0.70;0.70;;;7.50;90.20;;;;;;4977115;28;20196;-81
2022/04/01 11:38:18;;;;;;;0.65;0.65;;;6.50;89.10;;;;;;4976885;28;20211;-80
2022/04/01 11:40:46;;;;;;;0.60;0.60;;;5.60;90.80;;;;;;4994797;28;20198;-81
2022/04/01 11:43:14;;;;;;;0.60;0.60;;;5.10;91.60;;;;;;4976825;28;20203;-81
2022/04/01 11:45:44;;;;;;;0.70;0.70;;;4.60;93.00;;;;;;4976620;28;20222;-81
2022/04/01 11:48:26;;;;;;;0.60;0.60;;;4.30;93.50;;;;;;4976575;28;20215;-81
2022/04/01 11:50:57;;;;;;;0.80;0.77;;;4.00;95.10;;;;;;4976064;28;20195;-81
2022/04/01 11:53:25;;;;;;;0.70;0.70;;;3.80;97.80;;;;;;4993635;28;20206;-81
2022/04/01 11:55:53;;;;;;;0.60;0.60;;;3.50;98.10;;;;;;4976547;28;20623;-82
2022/04/01 11:58:19;;;;;;;0.60;0.60;;;3.50;97.50;;;;;;4975585;28;20207;-81
2022/04/01 12:00:45;;;;;;;0.60;0.60;;;3.60;97.60;;;;;;4993856;28;20203;-81
2022/04/01 12:03:11;;;;;;;0.60;0.60;;;3.50;98.70;;;;;;4993832;28;20206;-82
2022/04/01 12:05:39;;;;;;;0.60;0.60;;;3.50;99.50;;;;;;4976307;28;20203;-82
2022/04/01 12:10:55;;;;;;;0.60;0.60;;;3.50;99.90;;;;;;4993737;28;20286;-82
2022/04/01 12:13:22;;;;;;;0.70;0.70;;;3.60;99.90;;;;;;4993746;28;20254;-82
2022/04/01 12:15:49;;;;;;;0.55;0.55;;;3.60;99.90;;;;;;4976248;28;20516;-81
2022/04/01 12:18:17;;;;;;;0.70;0.70;;;3.90;99.90;;;;;;4976048;28;20228;-81
2022/04/01 12:20:54;;;;;;;0.40;0.40;;;4.30;99.90;;;;;;4975914;28;20782;-81
2022/04/01 12:23:25;;;;;;;0.60;0.60;;;4.60;99.90;;;;;;4975827;28;20207;-81
2022/04/01 12:25:53;;;;;;;0.52;0.52;;;4.90;99.70;;;;;;4975813;28;20227;-81
2022/04/01 12:28:23;;;;;;;0.70;0.70;;;5.00;99.90;;;;;;4975851;28;20234;-80
2022/04/01 12:30:55;;;;;;;0.60;0.60;;;5.00;99.90;;;;;;4982708;28;20219;-81
2022/04/01 12:33:28;;;;;;;0.60;0.60;;;5.20;99.90;;;;;;4974634;28;20211;-81
2022/04/01 12:36:02;;;;;;;0.55;0.55;;;5.10;99.90;;;;;;4974742;28;20274;-80
2022/04/01 12:38:37;;;;;;;0.52;0.52;;;4.70;99.90;;;;;;4974793;28;20203;-82
2022/04/01 12:41:14;;;;;;;0.63;0.63;;;4.40;99.90;;;;;;4975041;28;20206;-82
2022/04/01 12:43:43;;;;;;;0.70;0.70;;;4.10;99.90;;;;;;4975047;28;20216;-81
2022/04/01 12:46:23;;;;;;;0.70;0.70;;;3.80;99.90;;;;;;4993529;28;20736;-82
2022/04/01 12:48:54;;;;;;;0.50;0.50;;;3.40;99.90;;;;;;4975598;28;20211;-83
2022/04/01 12:51:31;;;;;;;0.63;0.63;;;3.10;99.90;;;;;;4975686;28;20207;-81
2022/04/01 12:54:01;;;;;;;0.55;0.55;;;3.20;99.90;;;;;;4975943;28;20199;-82
2022/04/01 12:56:33;;;;;;;0.65;0.65;;;3.30;99.90;;;;;;4975661;28;20198;-82
2022/04/01 12:59:06;;;;;;;0.65;0.65;;;3.40;99.90;;;;;;4993326;28;20214;-82
2022/04/01 13:01:35;;;;;;;0.60;0.60;;;3.50;99.90;;;;;;4975715;28;20784;-81
2022/04/01 13:04:01;;;;;;;0.70;0.70;;;3.40;99.90;;;;;;4974241;28;20225;-81
2022/04/01 13:06:28;;;;;;;0.55;0.55;;;3.30;99.90;;;;;;4975323;28;20283;-81
2022/04/01 13:08:59;;;;;;;0.50;0.50;;;3.30;99.90;;;;;;4976842;28;20211;-81
2022/04/01 13:11:41;;;;;;;0.60;0.60;;;3.30;99.90;;;;;;4978414;28;20624;-81
2022/04/01 13:21:35;;;;;;;0.63;0.63;;;3.60;99.90;;;;;;4934290;29;20685;-81
2022/04/01 13:24:06;;;;;;;0.60;0.60;;;3.50;99.90;;;;;;4944808;29;20576;-82
2022/04/01 13:26:34;;;;;;;0.77;0.77;;;3.50;99.90;;;;;;4937131;29;20688;-81
2022/04/01 13:29:02;;;;;;;0.70;0.70;;;3.70;99.90;;;;;;4937380;29;20726;-81
2022/04/01 13:31:28;;;;;;;0.70;0.70;;;4.10;99.90;;;;;;4953209;28;20584;-80
2022/04/01 13:33:56;;;;;;;0.65;0.65;;;4.30;99.90;;;;;;4952519;29;20197;-80
2022/04/01 13:36:25;;;;;;;0.55;0.55;;;4.40;99.90;;;;;;4936077;29;20216;-80
2022/04/01 13:38:51;;;;;;;1.10;1.08;;;4.30;99.90;;;;;;4936367;29;20672;-81